createdAt,value
2022-10-03T00:00:31.637Z,100667.97
2022-10-03T00:03:29.573Z,100706.38
2022-10-03T00:06:09.480Z,100718.28
2022-10-03T00:09:08.513Z,100701.75
2022-10-03T00:11:43.626Z,100715.44
2022-10-03T00:14:24.947Z,100690.25
2022-10-03T00:17:08.697Z,100709.56
2022-10-03T00:19:44.659Z,100701.16
2022-10-03T00:22:21.457Z,100697.94
2022-10-03T00:25:00.527Z,100702.66
2022-10-03T00:28:06.923Z,100700.53
2022-10-03T00:30:59.632Z,100706.69
2022-10-03T00:33:38.440Z,100702.44
2022-10-03T00:36:11.867Z,100703.41
2022-10-03T00:39:01.110Z,100694.50
2022-10-03T00:41:56.906Z,100693.03
2022-10-03T00:44:48.717Z,100674.91
2022-10-03T00:47:43.206Z,100682.22
2022-10-03T00:50:37.748Z,100648.63
2022-10-03T00:53:26.061Z,100669.22
2022-10-03T00:56:13.428Z,100660.38
2022-10-03T00:58:54.311Z,100666.00
2022-10-03T01:01:43.011Z,100668.16
2022-10-03T01:04:35.079Z,100676.19
2022-10-03T01:07:06.696Z,100677.50
2022-10-03T01:09:33.400Z,100679.16
2022-10-03T01:12:52.861Z,100666.28
2022-10-03T01:15:43.554Z,100654.38
2022-10-03T01:18:13.516Z,100668.56
2022-10-03T01:20:53.427Z,100655.44
2022-10-03T01:23:38.485Z,100661.72
2022-10-03T01:26:07.839Z,100673.56
2022-10-03T01:29:19.198Z,100655.47
2022-10-03T01:32:03.046Z,100664.38
2022-10-03T01:34:46.337Z,100665.75
2022-10-03T01:37:31.477Z,100665.75
2022-10-03T01:40:08.089Z,100667.44
2022-10-03T01:42:50.211Z,100671.53
2022-10-03T01:45:43.380Z,100676.00
2022-10-03T01:48:22.175Z,100676.69
2022-10-03T01:51:12.250Z,100676.53
2022-10-03T01:53:49.422Z,100671.75
2022-10-03T01:56:27.225Z,100666.47
2022-10-03T01:59:06.920Z,100675.69
2022-10-03T02:02:02.093Z,100684.31
2022-10-03T02:04:53.528Z,100686.19
2022-10-03T02:07:40.977Z,100678.16
2022-10-03T02:10:24.714Z,100668.69
2022-10-03T02:13:23.935Z,100665.34
2022-10-03T02:15:54.650Z,100667.91
2022-10-03T02:18:36.842Z,100663.41
2022-10-03T02:21:16.223Z,100668.88
2022-10-03T02:23:46.089Z,100664.38
2022-10-03T02:26:48.158Z,100665.88
2022-10-03T02:29:36.617Z,100668.25
2022-10-03T02:32:40.932Z,100664.00
2022-10-03T02:35:22.663Z,100664.53
2022-10-03T02:37:58.384Z,100666.84
2022-10-03T02:40:37.462Z,100649.94
2022-10-03T02:43:42.115Z,100652.28
2022-10-03T02:46:40.616Z,100656.38
2022-10-03T02:49:19.143Z,100656.69
2022-10-03T02:52:14.213Z,100641.59
2022-10-03T02:55:17.687Z,100646.53
2022-10-03T02:58:11.387Z,100642.34
2022-10-03T03:00:59.871Z,100642.97
2022-10-03T03:04:14.681Z,100595.44
2022-10-03T03:07:05.275Z,100646.81
2022-10-03T03:09:50.576Z,100653.66
2022-10-03T03:12:20.114Z,100640.81
2022-10-03T03:15:12.340Z,100638.88
2022-10-03T03:18:04.272Z,100633.16
2022-10-03T03:20:52.532Z,100635.47
2022-10-03T03:23:37.621Z,100633.66
2022-10-03T03:26:04.459Z,100628.44
2022-10-03T03:28:40.005Z,100625.91
2022-10-03T03:31:15.048Z,100634.38
2022-10-03T03:33:58.924Z,100619.69
2022-10-03T03:36:34.079Z,100622.53
2022-10-03T03:39:09.309Z,100608.28
2022-10-03T03:42:04.113Z,100613.34
2022-10-03T03:44:58.631Z,100624.69
2022-10-03T03:47:54.760Z,100617.91
2022-10-03T03:50:48.718Z,100615.63
2022-10-03T03:53:45.113Z,100614.00
2022-10-03T03:56:30.377Z,100621.88
2022-10-03T03:59:07.058Z,100619.44
2022-10-03T04:01:52.400Z,100612.19
2022-10-03T04:04:57.210Z,100610.03
2022-10-03T04:07:26.822Z,100618.16
2022-10-03T04:10:17.973Z,100610.34
2022-10-03T04:12:47.641Z,100609.34
2022-10-03T04:15:29.837Z,100618.00
2022-10-03T04:18:33.745Z,100617.84
2022-10-03T04:21:22.001Z,100626.88
2022-10-03T04:23:52.087Z,100626.22
2022-10-03T04:26:43.440Z,100623.44
2022-10-03T04:29:19.032Z,100624.13
2022-10-03T04:32:13.206Z,100590.28
2022-10-03T04:35:13.810Z,100631.53
2022-10-03T04:38:12.339Z,100629.91
2022-10-03T04:41:11.348Z,100629.25
2022-10-03T04:43:47.044Z,100616.94
2022-10-03T04:46:35.357Z,100611.63
2022-10-03T04:49:12.460Z,100631.59
2022-10-03T04:51:45.224Z,100629.75
2022-10-03T04:54:33.259Z,100621.09
2022-10-03T04:57:03.991Z,100626.09
2022-10-03T04:59:43.876Z,100598.50
2022-10-03T05:02:14.725Z,100619.25
2022-10-03T05:05:07.486Z,100624.59
2022-10-03T05:08:04.898Z,100625.44
2022-10-03T05:10:45.019Z,100616.78
2022-10-03T05:13:18.575Z,100597.47
2022-10-03T05:15:51.602Z,100631.25
2022-10-03T05:18:35.320Z,100616.56
2022-10-03T05:21:20.508Z,100618.91
2022-10-03T05:24:15.651Z,100619.09
2022-10-03T05:27:11.525Z,100598.50
2022-10-03T05:30:08.990Z,100623.09
2022-10-03T05:32:48.421Z,100640.56
2022-10-03T05:35:52.803Z,100625.09
2022-10-03T05:38:37.599Z,100628.28
2022-10-03T05:41:29.553Z,100617.28
2022-10-03T05:44:43.302Z,100613.16
2022-10-03T05:47:45.021Z,100628.25
2022-10-03T05:50:38.501Z,100619.13
2022-10-03T05:53:25.530Z,100627.78
2022-10-03T05:56:06.383Z,100611.47
2022-10-03T05:58:45.085Z,100636.44
2022-10-03T06:01:21.606Z,100634.63
2022-10-03T06:04:10.197Z,100633.47
2022-10-03T06:06:49.139Z,100639.78
2022-10-03T06:09:55.412Z,100642.78
2022-10-03T06:12:40.935Z,100626.44
2022-10-03T06:15:14.777Z,100635.47
2022-10-03T06:18:16.135Z,100646.94
2022-10-03T06:21:20.225Z,100649.44
2022-10-03T06:24:13.045Z,100648.59
2022-10-03T06:27:10.042Z,100655.25
2022-10-03T06:29:54.993Z,100655.53
2022-10-03T06:32:48.138Z,100642.06
2022-10-03T06:35:24.437Z,100654.34
2022-10-03T06:38:36.481Z,100631.75
2022-10-03T06:41:24.273Z,100668.84
2022-10-03T06:44:03.060Z,100667.03
2022-10-03T06:46:57.965Z,100664.19
2022-10-03T06:50:11.224Z,100668.19
2022-10-03T06:52:56.918Z,100672.03
2022-10-03T06:56:01.256Z,100672.56
2022-10-03T06:58:52.285Z,100679.72
2022-10-03T07:01:50.970Z,100679.22
2022-10-03T07:04:30.161Z,100689.53
2022-10-03T07:07:12.783Z,100697.19
2022-10-03T07:09:45.334Z,100703.84
2022-10-03T07:12:21.188Z,100703.66
2022-10-03T07:15:06.288Z,100700.16
2022-10-03T07:17:51.369Z,100705.13
2022-10-03T07:20:45.507Z,100699.97
2022-10-03T07:23:42.673Z,100697.00
2022-10-03T07:26:43.070Z,100678.53
2022-10-03T07:29:20.940Z,100713.63
2022-10-03T07:32:07.279Z,100686.13
2022-10-03T07:35:17.457Z,100704.88
2022-10-03T07:38:28.814Z,100710.84
2022-10-03T07:41:35.628Z,100722.63
2022-10-03T07:44:38.504Z,100720.97
2022-10-03T07:47:27.001Z,100713.44
2022-10-03T07:50:42.191Z,100715.78
2022-10-03T07:53:57.976Z,100729.28
2022-10-03T07:57:09.974Z,100733.28
2022-10-03T07:59:55.312Z,100735.03
2022-10-03T08:03:01.221Z,100741.91
2022-10-03T08:05:59.790Z,100734.63
2022-10-03T08:09:28.279Z,100742.72
2022-10-03T08:12:31.762Z,100739.28
2022-10-03T08:15:22.185Z,100741.22
2022-10-03T08:18:21.430Z,100754.53
2022-10-03T08:21:15.931Z,100755.56
2022-10-03T08:24:12.243Z,100755.50
2022-10-03T08:27:09.953Z,100740.00
2022-10-03T08:30:41.882Z,100757.13
2022-10-03T08:33:55.032Z,100752.91
2022-10-03T08:36:40.531Z,100763.00
2022-10-03T08:39:13.525Z,100745.97
2022-10-03T08:42:08.279Z,100761.22
2022-10-03T08:44:57.960Z,100735.09
2022-10-03T08:47:58.332Z,100759.31
2022-10-03T08:50:33.849Z,100768.16
2022-10-03T08:53:20.714Z,100758.81
2022-10-03T08:56:04.409Z,100766.09
2022-10-03T08:58:57.601Z,100718.59
2022-10-03T09:01:27.309Z,100777.44
2022-10-03T09:03:54.161Z,100771.13
2022-10-03T09:07:15.339Z,100761.53
2022-10-03T09:09:36.602Z,100778.34
2022-10-03T09:12:32.473Z,100766.75
2022-10-03T09:15:22.893Z,100776.91
2022-10-03T09:18:13.859Z,100742.53
2022-10-03T09:21:07.185Z,100792.63
2022-10-03T09:23:52.783Z,100781.66
2022-10-03T09:26:28.750Z,100795.88
2022-10-03T09:29:16.867Z,100793.13
2022-10-03T09:32:07.785Z,100794.81
2022-10-03T09:34:43.670Z,100796.88
2022-10-03T09:38:03.819Z,100777.16
2022-10-03T09:40:53.323Z,100767.38
2022-10-03T09:43:29.621Z,100793.41
2022-10-03T09:46:30.702Z,100793.84
2022-10-03T09:49:22.152Z,100786.88
2022-10-03T09:51:55.657Z,100797.63
2022-10-03T09:54:33.203Z,100788.97
2022-10-03T09:57:22.890Z,100782.38
2022-10-03T10:00:15.754Z,100772.50
2022-10-03T10:02:51.840Z,100782.72
2022-10-03T10:05:21.614Z,100774.50
2022-10-03T10:08:00.334Z,100790.53
2022-10-03T10:11:01.413Z,100779.31
2022-10-03T10:14:06.598Z,100796.81
2022-10-03T10:16:48.315Z,100759.81
2022-10-03T10:19:30.776Z,100783.06
2022-10-03T10:22:16.765Z,100787.84
2022-10-03T10:25:01.958Z,100790.91
2022-10-03T10:27:50.339Z,100788.00
2022-10-03T10:30:17.778Z,100795.72
2022-10-03T10:33:21.956Z,100799.63
2022-10-03T10:36:26.452Z,100793.03
2022-10-03T10:39:23.074Z,100787.81
2022-10-03T10:42:27.173Z,100789.59
2022-10-03T10:45:15.214Z,100789.59
2022-10-03T10:48:23.013Z,100775.63
2022-10-03T10:51:05.318Z,100811.34
2022-10-03T10:54:09.485Z,100797.53
2022-10-03T10:57:03.341Z,100800.50
2022-10-03T10:59:54.591Z,100800.13
2022-10-03T11:02:33.865Z,100804.03
2022-10-03T11:05:38.448Z,100807.34
2022-10-03T11:08:23.869Z,100805.34
2022-10-03T11:11:09.305Z,100819.44
2022-10-03T11:13:41.973Z,100806.09
2022-10-03T11:16:31.790Z,100808.53
2022-10-03T11:19:11.607Z,100789.19
2022-10-03T11:21:50.689Z,100817.84
2022-10-03T11:24:36.245Z,100797.88
2022-10-03T11:27:07.609Z,100808.66
2022-10-03T11:29:52.852Z,100804.03
2022-10-03T11:32:47.636Z,100810.75
2022-10-03T11:36:10.385Z,100803.44
2022-10-03T11:39:04.793Z,100767.16
2022-10-03T11:41:50.616Z,100804.47
2022-10-03T11:44:32.269Z,100804.69
2022-10-03T11:47:29.112Z,100806.16
2022-10-03T11:50:02.008Z,100806.09
2022-10-03T11:52:41.931Z,100802.72
2022-10-03T11:55:21.266Z,100807.94
2022-10-03T11:58:03.487Z,100795.41
2022-10-03T12:00:36.458Z,100766.28
2022-10-03T12:03:21.691Z,100797.78
2022-10-03T12:06:28.851Z,100771.16
2022-10-03T12:09:07.510Z,100809.63
2022-10-03T12:11:43.811Z,100786.88
2022-10-03T12:14:11.788Z,100804.00
2022-10-03T12:17:07.055Z,100784.63
2022-10-03T12:19:37.850Z,100764.06
2022-10-03T12:22:04.579Z,100805.81
2022-10-03T12:24:43.145Z,100776.75
2022-10-03T12:27:09.819Z,100792.66
2022-10-03T12:29:42.737Z,100765.81
2022-10-03T12:32:24.333Z,100785.94
2022-10-03T12:35:02.818Z,100795.09
2022-10-03T12:37:30.092Z,100795.31
2022-10-03T12:40:16.247Z,100769.91
2022-10-03T12:42:47.515Z,100782.06
2022-10-03T12:45:20.417Z,100778.00
2022-10-03T12:47:59.227Z,100800.06
2022-10-03T12:50:31.906Z,100780.22
2022-10-03T12:53:17.690Z,100776.75
2022-10-03T12:56:03.620Z,100784.13
2022-10-03T12:59:02.657Z,100775.25
2022-10-03T13:01:54.297Z,100780.16
2022-10-03T13:04:24.353Z,100786.31
2022-10-03T13:07:17.966Z,100742.31
2022-10-03T13:10:10.856Z,100761.91
2022-10-03T13:12:39.562Z,100783.66
2022-10-03T13:15:44.920Z,100757.81
2022-10-03T13:18:30.521Z,100761.19
2022-10-03T13:21:45.621Z,100742.72
2022-10-03T13:24:32.546Z,100756.16
2022-10-03T13:27:29.439Z,100746.41
2022-10-03T13:30:40.172Z,100759.09
2022-10-03T13:33:18.961Z,100760.97
2022-10-03T13:36:24.233Z,100736.81
2022-10-03T13:39:14.534Z,100751.09
2022-10-03T13:42:01.681Z,100769.47
2022-10-03T13:44:43.544Z,100755.66
2022-10-03T13:47:22.294Z,100739.69
2022-10-03T13:49:53.822Z,100745.53
2022-10-03T13:52:27.185Z,100749.75
2022-10-03T13:55:13.534Z,100747.78
2022-10-03T13:58:04.420Z,100746.56
2022-10-03T14:01:02.482Z,100750.69
2022-10-03T14:03:39.492Z,100744.94
2022-10-03T14:06:24.644Z,100743.31
2022-10-03T14:09:13.113Z,100737.13
2022-10-03T14:12:06.874Z,100710.31
2022-10-03T14:14:49.607Z,100744.47
2022-10-03T14:17:25.549Z,100741.19
2022-10-03T14:20:15.450Z,100745.25
2022-10-03T14:23:09.474Z,100703.16
2022-10-03T14:25:47.390Z,100754.19
2022-10-03T14:28:26.623Z,100744.31
2022-10-03T14:31:07.253Z,100748.00
2022-10-03T14:33:43.361Z,100743.09
2022-10-03T14:36:46.661Z,100740.59
2022-10-03T14:39:40.212Z,100675.84
2022-10-03T14:42:31.586Z,100743.78
2022-10-03T14:45:03.933Z,100724.03
2022-10-03T14:47:41.043Z,100741.72
2022-10-03T14:50:17.850Z,100705.00
2022-10-03T14:53:02.879Z,100742.91
2022-10-03T14:55:52.491Z,100724.69
2022-10-03T14:58:23.384Z,100737.03
2022-10-03T15:00:55.708Z,100730.38
2022-10-03T15:03:33.899Z,100741.50
2022-10-03T15:06:21.322Z,100745.53
2022-10-03T15:08:55.154Z,100739.72
2022-10-03T15:11:28.291Z,100726.94
2022-10-03T15:14:03.124Z,100689.25
2022-10-03T15:16:37.395Z,100725.41
2022-10-03T15:19:23.194Z,100718.38
2022-10-03T15:21:52.932Z,100716.31
2022-10-03T15:24:28.376Z,100741.72
2022-10-03T15:27:02.088Z,100698.84
2022-10-03T15:29:31.572Z,100731.00
2022-10-03T15:31:59.338Z,100702.97
2022-10-03T15:34:32.446Z,100739.63
2022-10-03T15:37:08.358Z,100663.16
2022-10-03T15:39:37.647Z,100663.03
2022-10-03T15:42:10.075Z,100744.69
2022-10-03T15:44:39.736Z,100712.47
2022-10-03T15:47:13.616Z,100728.84
2022-10-03T15:49:48.900Z,100689.31
2022-10-03T15:52:44.560Z,100730.91
2022-10-03T15:55:20.648Z,100743.22
2022-10-03T15:57:51.932Z,100748.88
2022-10-03T16:00:38.022Z,100730.94
2022-10-03T16:03:30.078Z,100737.53
2022-10-03T16:06:09.214Z,100739.03
2022-10-03T16:09:02.628Z,100732.00
2022-10-03T16:11:54.892Z,100715.75
2022-10-03T16:14:41.865Z,100699.16
2022-10-03T16:17:33.343Z,100737.06
2022-10-03T16:20:26.298Z,100724.66
2022-10-03T16:22:57.808Z,100677.44
2022-10-03T16:25:32.324Z,100721.16
2022-10-03T16:28:14.365Z,100716.59
2022-10-03T16:30:53.607Z,100739.63
2022-10-03T16:33:28.741Z,100730.91
2022-10-03T16:36:03.767Z,100719.56
2022-10-03T16:38:36.252Z,100696.41
2022-10-03T16:41:14.252Z,100689.75
2022-10-03T16:43:42.021Z,100682.56
2022-10-03T16:46:21.571Z,100722.88
2022-10-03T16:49:07.137Z,100745.38
2022-10-03T16:51:41.545Z,100729.19
2022-10-03T16:54:13.726Z,100727.03
2022-10-03T16:56:46.165Z,100726.31
2022-10-03T16:59:17.917Z,100734.97
2022-10-03T17:01:50.955Z,100758.31
2022-10-03T17:04:49.371Z,100745.00
2022-10-03T17:07:30.139Z,100748.16
2022-10-03T17:09:59.931Z,100696.84
2022-10-03T17:12:46.416Z,100742.41
2022-10-03T17:15:20.269Z,100654.13
2022-10-03T17:18:01.565Z,100761.66
2022-10-03T17:20:48.569Z,100731.75
2022-10-03T17:23:24.415Z,100756.88
2022-10-03T17:26:11.481Z,100773.41
2022-10-03T17:28:41.808Z,100746.94
2022-10-03T17:31:23.094Z,100725.44
2022-10-03T17:34:00.887Z,100728.13
2022-10-03T17:36:55.832Z,100770.13
2022-10-03T17:39:42.357Z,100766.63
2022-10-03T17:42:39.963Z,100763.84
2022-10-03T17:45:37.159Z,100774.16
2022-10-03T17:48:13.516Z,100774.78
2022-10-03T17:50:51.511Z,100779.97
2022-10-03T17:53:30.941Z,100741.81
2022-10-03T17:56:21.440Z,100762.81
2022-10-03T17:58:52.629Z,100758.34
2022-10-03T18:01:25.449Z,100783.88
2022-10-03T18:03:58.616Z,100786.63
2022-10-03T18:06:37.453Z,100785.69
2022-10-03T18:09:17.226Z,100789.97
2022-10-03T18:11:49.809Z,100773.63
2022-10-03T18:14:32.085Z,100793.44
2022-10-03T18:17:37.487Z,100782.69
2022-10-03T18:20:29.033Z,100771.59
2022-10-03T18:23:08.897Z,100787.25
2022-10-03T18:28:58.741Z,100790.16
2022-10-03T18:31:26.027Z,100809.16
2022-10-03T18:34:01.022Z,100799.66
2022-10-03T18:36:53.509Z,100812.03
2022-10-03T18:39:34.202Z,100786.16
2022-10-03T18:42:02.659Z,100765.41
2022-10-03T18:44:32.737Z,100785.34
2022-10-03T18:47:14.544Z,100784.88
2022-10-03T18:49:48.398Z,100821.28
2022-10-03T18:52:29.698Z,100804.22
2022-10-03T18:55:20.506Z,100819.88
2022-10-03T18:58:00.639Z,100768.03
2022-10-03T19:00:34.305Z,100812.16
2022-10-03T19:03:15.562Z,100822.25
2022-10-03T19:05:58.477Z,100831.03
2022-10-03T19:08:49.627Z,100818.31
2022-10-03T19:11:32.162Z,100809.06
2022-10-03T19:14:33.821Z,100834.69
2022-10-03T19:17:21.084Z,100836.94
2022-10-03T19:19:57.921Z,100840.50
2022-10-03T19:23:06.508Z,100839.31
2022-10-03T19:25:37.558Z,100838.00
2022-10-03T19:28:22.241Z,100841.03
2022-10-03T19:31:37.086Z,100828.72
2022-10-03T19:34:33.625Z,100846.81
2022-10-03T19:37:01.644Z,100834.22
2022-10-03T19:39:32.632Z,100833.25
2022-10-03T19:42:18.723Z,100852.94
2022-10-03T19:44:45.653Z,100852.47
2022-10-03T19:47:21.686Z,100854.13
2022-10-03T19:50:19.305Z,100857.88
2022-10-03T19:52:47.576Z,100860.25
2022-10-03T19:55:19.165Z,100859.28
2022-10-03T19:57:59.031Z,100863.25
2022-10-03T20:00:26.189Z,100877.28
2022-10-03T20:02:56.614Z,100873.50
2022-10-03T20:05:41.053Z,100859.75
2022-10-03T20:08:22.957Z,100892.53
2022-10-03T20:11:06.326Z,100896.28
2022-10-03T20:13:33.466Z,100897.50
2022-10-03T20:16:00.605Z,100875.16
2022-10-03T20:18:34.099Z,100880.00
2022-10-03T20:21:04.310Z,100899.34
2022-10-03T20:23:33.647Z,100888.00
2022-10-03T20:26:05.363Z,100879.69
2022-10-03T20:29:09.018Z,100903.19
2022-10-03T20:31:39.103Z,100882.16
2022-10-03T20:34:21.407Z,100906.16
2022-10-03T20:36:55.204Z,100908.19
2022-10-03T20:39:29.318Z,100919.69
2022-10-03T20:42:19.016Z,100900.03
2022-10-03T20:45:15.080Z,100889.44
2022-10-03T20:47:51.653Z,100923.09
2022-10-03T20:50:26.681Z,100873.53
2022-10-03T20:52:58.329Z,100866.94
2022-10-03T20:55:47.533Z,100768.38
2022-10-03T20:58:41.283Z,100919.69
2022-10-03T21:01:16.049Z,100917.41
2022-10-03T21:04:07.489Z,100920.72
2022-10-03T21:06:51.539Z,100806.06
2022-10-03T21:09:34.380Z,100920.06
2022-10-03T21:12:03.954Z,100949.56
2022-10-03T21:14:33.730Z,100907.75
2022-10-03T21:17:02.657Z,100903.13
2022-10-03T21:19:32.323Z,100937.72
2022-10-03T21:22:04.167Z,100941.38
2022-10-03T21:29:06.002Z,100938.72
2022-10-03T21:31:42.673Z,100897.59
2022-10-03T21:31:48.090Z,100939.22
2022-10-03T21:34:37.649Z,100924.53
2022-10-03T21:37:11.263Z,100923.84
2022-10-03T21:39:41.101Z,100916.16
2022-10-03T21:42:16.619Z,100917.72
2022-10-03T21:45:02.204Z,100924.38
2022-10-03T21:47:50.448Z,100926.22
2022-10-03T21:50:32.557Z,100914.22
2022-10-03T21:53:19.559Z,100915.69
2022-10-03T21:56:13.733Z,100905.69
2022-10-03T21:59:02.600Z,100916.66
2022-10-03T22:02:00.241Z,100900.00
2022-10-03T22:04:37.095Z,100896.97
2022-10-03T22:07:18.934Z,100902.25
2022-10-03T22:09:51.485Z,100882.44
2022-10-03T22:12:27.666Z,100858.31
2022-10-03T22:15:00.480Z,100903.25
2022-10-03T22:17:43.408Z,100740.84
2022-10-03T22:20:21.392Z,100857.00
2022-10-03T22:22:54.495Z,100900.88
2022-10-03T22:25:48.058Z,100890.19
2022-10-03T22:28:31.823Z,100894.03
2022-10-03T22:31:17.372Z,100898.53
2022-10-03T22:34:04.163Z,100888.22
2022-10-03T22:36:36.641Z,100850.56
2022-10-03T22:39:12.913Z,100855.06
2022-10-03T22:41:42.264Z,100883.34
2022-10-03T22:44:11.747Z,100831.44
2022-10-03T22:46:43.135Z,100871.56
2022-10-03T22:49:21.114Z,100864.91
2022-10-03T22:51:50.537Z,100852.03
2022-10-03T22:54:18.897Z,100843.72
2022-10-03T22:56:48.755Z,100748.41
2022-10-03T22:59:23.883Z,100858.06
2022-10-03T23:01:54.660Z,100844.03
2022-10-03T23:04:47.755Z,100846.19
2022-10-03T23:07:26.876Z,100857.66
2022-10-03T23:10:18.336Z,100867.03
2022-10-03T23:12:52.880Z,100859.16
2022-10-03T23:15:22.879Z,100794.94
2022-10-03T23:17:58.389Z,100857.59
2022-10-03T23:20:51.761Z,100847.94
2022-10-03T23:23:25.785Z,100843.63
2022-10-03T23:25:58.948Z,100850.22
2022-10-03T23:29:03.352Z,100816.47
2022-10-03T23:31:49.063Z,100845.78
2022-10-03T23:34:34.959Z,100842.81
2022-10-03T23:37:14.201Z,100815.38
2022-10-03T23:39:56.145Z,100850.16
2022-10-03T23:42:32.099Z,100846.19
2022-10-03T23:45:06.598Z,100845.56
2022-10-03T23:47:56.133Z,100822.75
2022-10-03T23:50:53.552Z,100850.59
2022-10-03T23:53:43.657Z,100848.03
2022-10-03T23:56:22.726Z,100840.53
2022-10-03T23:59:10.093Z,100842.75
